Time,TemperatureF,DewpointF,PressureIn,WindDirection,WindDirectionDegrees,WindSpeedMPH,WindSpeedGustMPH,Humidity,HourlyPrecipIn,Conditions,Clouds,dailyrainin,SolarRadiationWatts/m^2,SoftwareType,DateUTC
2013-05-20 00:10:00,56.1,53.5,23.20,SW,217,0.0,0.0,91,0.00,,,0.00,0,Wunderground v.1.15,2013-05-20 04:10:00,
2013-05-20 00:20:00,56.1,53.5,23.21,SW,215,0.0,0.0,91,0.00,,,0.00,0,Wunderground v.1.15,2013-05-20 04:20:00,
2013-05-20 00:30:00,56.1,53.5,23.21,SSW,198,0.0,0.0,91,0.21,,,0.02,0,Wunderground v.1.15,2013-05-20 04:30:00,
2013-05-20 00:40:00,56.1,53.5,23.20,SW,215,0.0,0.0,91,0.05,,,0.02,0,Wunderground v.1.15,2013-05-20 04:40:00,
2013-05-20 00:50:00,56.1,53.5,23.20,SW,216,0.0,0.0,91,0.04,,,0.02,0,Wunderground v.1.15,2013-05-20 04:50:00,
2013-05-20 01:10:00,55.9,53.3,23.20,SSW,205,0.0,0.0,91,0.00,,,0.02,0,Wunderground v.1.15,2013-05-20 05:10:00,
2013-05-20 01:20:00,55.9,53.6,23.20,SSW,206,0.0,0.0,92,0.00,,,0.02,0,Wunderground v.1.15,2013-05-20 05:20:00,
2013-05-20 01:30:00,55.9,53.6,23.20,SSW,206,0.0,0.0,92,0.00,,,0.02,0,Wunderground v.1.15,2013-05-20 05:30:00,
2013-05-20 01:40:00,55.9,53.6,23.20,SSW,206,0.0,0.0,92,0.00,,,0.02,0,Wunderground v.1.15,2013-05-20 05:40:00,
2013-05-20 01:50:00,55.9,53.6,23.20,SSW,206,0.0,0.0,92,0.00,,,0.02,0,Wunderground v.1.15,2013-05-20 05:50:00,
2013-05-20 02:10:00,55.9,53.6,23.20,SSW,206,0.0,0.0,92,0.00,,,0.02,0,Wunderground v.1.15,2013-05-20 06:10:00,
2013-05-20 02:20:00,55.9,53.6,23.20,SSW,206,0.0,0.0,92,0.00,,,0.02,0,Wunderground v.1.15,2013-05-20 06:20:00,
2013-05-20 02:40:00,55.9,53.6,23.19,SSW,206,0.0,0.0,92,0.00,,,0.02,0,Wunderground v.1.15,2013-05-20 06:40:00,
2013-05-20 02:50:00,55.9,53.6,23.19,SSW,206,0.0,0.0,92,0.00,,,0.02,0,Wunderground v.1.15,2013-05-20 06:50:00,
2013-05-20 03:10:00,56.1,53.8,23.19,SSW,206,0.0,0.0,92,0.00,,,0.02,0,Wunderground v.1.15,2013-05-20 07:10:00,
2013-05-20 03:20:00,56.1,53.8,23.19,SSW,206,0.0,0.0,92,0.00,,,0.02,0,Wunderground v.1.15,2013-05-20 07:20:00,
2013-05-20 03:40:00,56.1,53.8,23.19,SSW,206,0.0,0.0,92,0.00,,,0.03,0,Wunderground v.1.15,2013-05-20 07:40:00,
2013-05-20 03:50:00,56.1,53.8,23.19,SSW,206,0.0,0.0,92,0.00,,,0.03,0,Wunderground v.1.15,2013-05-20 07:50:00,
2013-05-20 04:10:00,56.1,53.8,23.19,SSW,206,0.0,0.0,92,0.00,,,0.03,0,Wunderground v.1.15,2013-05-20 08:10:00,
2013-05-20 04:20:00,56.1,53.8,23.19,SSW,206,0.0,0.0,92,0.00,,,0.04,0,Wunderground v.1.15,2013-05-20 08:20:00,
2013-05-20 04:40:00,55.9,53.9,23.19,SSW,206,0.0,0.0,93,0.13,,,0.06,0,Wunderground v.1.15,2013-05-20 08:40:00,
2013-05-20 04:50:00,55.9,53.9,23.19,SSW,206,0.0,0.0,93,0.14,,,0.08,0,Wunderground v.1.15,2013-05-20 08:50:00,
2013-05-20 05:10:00,56.1,54.1,23.19,SSW,206,0.0,0.0,93,0.04,,,0.09,0,Wunderground v.1.15,2013-05-20 09:10:00,
2013-05-20 05:20:00,56.2,54.2,23.19,SW,222,0.0,0.0,93,0.00,,,0.09,0,Wunderground v.1.15,2013-05-20 09:20:00,
2013-05-20 05:40:00,56.9,54.9,23.19,SSW,211,0.0,0.0,93,0.00,,,0.09,0,Wunderground v.1.15,2013-05-20 09:40:00,
2013-05-20 05:50:00,57.2,55.2,23.19,WSW,245,0.0,0.0,93,0.00,,,0.09,11,Wunderground v.1.15,2013-05-20 09:50:00,
2013-05-20 06:01:00,57.5,55.5,23.19,WNW,285,0.0,0.0,93,0.00,,,0.09,7,Wunderground v.1.15,2013-05-20 10:01:00,
2013-05-20 06:10:00,57.7,55.7,23.19,West,271,0.0,0.0,93,0.00,,,0.09,23,Wunderground v.1.15,2013-05-20 10:10:00,
2013-05-20 06:20:00,57.9,55.9,23.19,SW,221,0.0,0.0,93,0.00,,,0.09,44,Wunderground v.1.15,2013-05-20 10:20:00,
2013-05-20 06:31:00,58.2,56.2,23.19,SW,217,0.0,0.0,93,0.00,,,0.09,40,Wunderground v.1.15,2013-05-20 10:31:00,
2013-05-20 06:40:00,58.2,55.9,23.19,NW,319,0.0,0.0,92,0.00,,,0.09,44,Wunderground v.1.15,2013-05-20 10:40:00,
2013-05-20 06:50:00,58.5,56.2,23.19,SW,232,0.0,0.0,92,0.00,,,0.09,37,Wunderground v.1.15,2013-05-20 10:50:00,
2013-05-20 07:10:00,58.6,56.0,23.19,SW,236,0.0,0.0,91,0.00,,,0.09,62,Wunderground v.1.15,2013-05-20 11:10:00,
2013-05-20 07:20:00,58.8,56.2,23.20,NW,306,0.0,0.0,91,0.00,,,0.09,86,Wunderground v.1.15,2013-05-20 11:20:00,
2013-05-20 07:40:00,59.2,56.6,23.20,WSW,239,0.0,0.0,91,0.00,,,0.09,139,Wunderground v.1.15,2013-05-20 11:40:00,
2013-05-20 07:50:00,59.5,56.6,23.20,WNW,292,0.0,0.0,90,0.00,,,0.09,306,Wunderground v.1.15,2013-05-20 11:50:00,
2013-05-20 08:00:00,60.4,57.5,23.20,NW,304,0.0,0.0,90,0.00,,,0.09,359,Wunderground v.1.15,2013-05-20 12:00:00,
2013-05-20 08:10:00,60.6,57.0,23.20,West,277,0.0,0.0,88,0.00,,,0.09,188,Wunderground v.1.15,2013-05-20 12:10:00,
2013-05-20 08:20:00,60.9,57.0,23.20,WNW,296,0.0,0.0,87,0.00,,,0.09,207,Wunderground v.1.15,2013-05-20 12:20:00,
2013-05-20 08:40:00,62.0,57.8,23.20,WNW,300,0.0,0.0,86,0.00,,,0.09,299,Wunderground v.1.15,2013-05-20 12:40:00,
2013-05-20 08:50:00,62.8,57.9,23.20,West,266,0.0,0.0,84,0.00,,,0.09,364,Wunderground v.1.15,2013-05-20 12:50:00,
2013-05-20 09:10:00,64.1,57.8,23.20,NW,322,0.0,0.0,80,0.00,,,0.09,446,Wunderground v.1.15,2013-05-20 13:10:00,
2013-05-20 09:20:00,64.9,57.9,23.20,NNW,331,0.0,0.0,78,0.00,,,0.09,499,Wunderground v.1.15,2013-05-20 13:20:00,
2013-05-20 09:31:00,66.3,58.1,23.20,NW,325,0.0,0.0,75,0.00,,,0.09,909,Wunderground v.1.15,2013-05-20 13:31:00,
2013-05-20 09:40:00,67.2,57.9,23.20,WNW,303,0.0,0.0,72,0.00,,,0.09,534,Wunderground v.1.15,2013-05-20 13:40:00,
2013-05-20 09:50:00,67.0,57.3,23.20,SW,234,0.0,0.0,71,0.00,,,0.09,392,Wunderground v.1.15,2013-05-20 13:50:00,
2013-05-20 10:01:00,66.8,56.7,23.20,WNW,302,0.0,0.0,70,0.00,,,0.09,204,Wunderground v.1.15,2013-05-20 14:01:00,
2013-05-20 10:10:00,66.3,57.0,23.20,West,280,0.0,0.0,72,0.00,,,0.09,610,Wunderground v.1.15,2013-05-20 14:10:00,
2013-05-20 10:20:00,67.0,56.9,23.20,West,261,0.0,0.0,70,0.00,,,0.09,376,Wunderground v.1.15,2013-05-20 14:20:00,
2013-05-20 10:30:00,67.3,55.1,23.20,North,360,0.0,0.0,65,0.00,,,0.09,497,Wunderground v.1.15,2013-05-20 14:30:00,
2013-05-20 10:40:00,67.7,53.3,23.20,North,11,0.0,0.0,60,0.00,,,0.09,316,Wunderground v.1.15,2013-05-20 14:40:00,
2013-05-20 10:50:00,68.0,54.0,23.20,NNE,13,0.0,0.0,61,0.00,,,0.09,849,Wunderground v.1.15,2013-05-20 14:50:00,
2013-05-20 11:10:00,69.0,56.7,23.20,North,360,0.0,0.0,65,0.00,,,0.09,220,Wunderground v.1.15,2013-05-20 15:10:00,
2013-05-20 11:20:00,67.7,55.9,23.20,NNE,19,0.0,0.0,66,0.00,,,0.09,343,Wunderground v.1.15,2013-05-20 15:20:00,
2013-05-20 11:40:00,69.3,54.4,23.20,North,351,0.0,0.0,59,0.00,,,0.09,700,Wunderground v.1.15,2013-05-20 15:40:00,
2013-05-20 11:50:00,69.5,53.6,23.20,NNW,338,0.0,0.0,57,0.00,,,0.09,886,Wunderground v.1.15,2013-05-20 15:50:00,
2013-05-20 12:01:00,70.0,55.0,23.20,NE,40,0.0,0.0,59,0.00,,,0.09,617,Wunderground v.1.15,2013-05-20 16:01:00,
2013-05-20 12:10:00,69.7,52.3,23.20,East,80,0.0,0.0,54,0.00,,,0.09,1000,Wunderground v.1.15,2013-05-20 16:10:00,
2013-05-20 12:20:00,70.0,54.5,23.20,ENE,73,0.0,0.0,58,0.00,,,0.09,1116,Wunderground v.1.15,2013-05-20 16:20:00,
2013-05-20 12:30:00,70.7,53.7,23.20,East,89,1.0,4.0,55,0.00,,,0.09,923,Wunderground v.1.15,2013-05-20 16:30:00,
2013-05-20 12:40:00,71.2,53.7,23.20,NNE,28,1.0,1.0,54,0.00,,,0.09,708,Wunderground v.1.15,2013-05-20 16:40:00,
2013-05-20 12:50:00,71.2,53.2,23.20,NNE,19,0.0,0.0,53,0.00,,,0.09,513,Wunderground v.1.15,2013-05-20 16:50:00,
2013-05-20 13:10:00,70.5,52.5,23.20,ENE,64,0.0,0.0,53,0.00,,,0.09,1113,Wunderground v.1.15,2013-05-20 17:10:00,
2013-05-20 13:20:00,70.8,52.3,23.20,NNE,13,0.0,0.0,52,0.00,,,0.09,408,Wunderground v.1.15,2013-05-20 17:20:00,
2013-05-20 13:40:00,70.3,51.8,23.20,NNE,15,0.0,0.0,52,0.00,,,0.09,406,Wunderground v.1.15,2013-05-20 17:40:00,
2013-05-20 13:50:00,70.7,52.2,23.20,NE,38,0.0,0.0,52,0.00,,,0.09,949,Wunderground v.1.15,2013-05-20 17:50:00,
2013-05-20 14:10:00,71.7,51.5,23.20,NNE,25,0.0,0.0,49,0.00,,,0.09,796,Wunderground v.1.15,2013-05-20 18:10:00,
2013-05-20 14:20:00,72.2,52.0,23.20,East,98,0.0,0.0,49,0.00,,,0.09,1009,Wunderground v.1.15,2013-05-20 18:20:00,
2013-05-20 14:40:00,72.7,51.3,23.20,ENE,67,0.0,0.0,47,0.00,,,0.09,974,Wunderground v.1.15,2013-05-20 18:40:00,
2013-05-20 14:50:00,73.1,50.5,23.20,ESE,111,0.0,0.0,45,0.00,,,0.09,828,Wunderground v.1.15,2013-05-20 18:50:00,
2013-05-20 15:10:00,73.6,50.9,23.20,ENE,68,0.0,0.0,45,0.00,,,0.09,257,Wunderground v.1.15,2013-05-20 19:10:00,
2013-05-20 15:20:00,73.1,51.1,23.20,ESE,116,0.0,0.0,46,0.00,,,0.09,786,Wunderground v.1.15,2013-05-20 19:20:00,
2013-05-20 15:40:00,74.1,50.2,23.20,NE,55,0.0,0.0,43,0.00,,,0.09,861,Wunderground v.1.15,2013-05-20 19:40:00,
2013-05-20 15:50:00,73.8,50.5,23.20,NNE,15,0.0,0.0,44,0.00,,,0.09,833,Wunderground v.1.15,2013-05-20 19:50:00,
2013-05-20 16:10:00,73.6,50.3,23.20,ENE,67,0.0,0.0,44,0.00,,,0.09,369,Wunderground v.1.15,2013-05-20 20:10:00,
2013-05-20 16:20:00,72.9,50.3,23.20,SE,138,0.0,0.0,45,0.00,,,0.09,327,Wunderground v.1.15,2013-05-20 20:20:00,
2013-05-20 16:31:00,73.1,49.9,23.20,ESE,120,0.0,0.0,44,0.00,,,0.09,353,Wunderground v.1.15,2013-05-20 20:31:00,
2013-05-20 16:40:00,73.1,51.1,23.20,East,88,0.0,0.0,46,0.00,,,0.09,316,Wunderground v.1.15,2013-05-20 20:40:00,
2013-05-20 16:50:00,72.6,50.6,23.20,NNE,13,0.0,0.0,46,0.00,,,0.09,227,Wunderground v.1.15,2013-05-20 20:50:00,
2013-05-20 17:01:00,72.6,50.6,23.20,NE,38,0.0,0.0,46,0.00,,,0.09,156,Wunderground v.1.15,2013-05-20 21:01:00,
2013-05-20 17:10:00,72.4,51.0,23.20,ENE,67,0.0,0.0,47,0.00,,,0.09,160,Wunderground v.1.15,2013-05-20 21:10:00,
2013-05-20 17:20:00,72.2,50.3,23.20,ENE,66,0.0,0.0,46,0.00,,,0.09,127,Wunderground v.1.15,2013-05-20 21:20:00,
2013-05-20 17:40:00,72.6,51.2,23.20,ESE,111,0.0,0.0,47,0.00,,,0.09,186,Wunderground v.1.15,2013-05-20 21:40:00,
2013-05-20 17:50:00,72.2,50.3,23.20,ESE,113,0.0,0.0,46,0.00,,,0.09,107,Wunderground v.1.15,2013-05-20 21:50:00,
2013-05-20 18:10:00,71.9,51.1,23.20,ESE,114,0.0,0.0,48,0.00,,,0.09,97,Wunderground v.1.15,2013-05-20 22:10:00,
2013-05-20 18:20:00,71.5,51.3,23.19,ESE,119,0.0,0.0,49,0.00,,,0.09,63,Wunderground v.1.15,2013-05-20 22:20:00,
2013-05-20 18:30:00,70.0,52.1,23.19,SE,140,0.0,0.0,53,0.00,,,0.09,53,Wunderground v.1.15,2013-05-20 22:30:00,
2013-05-20 18:40:00,69.3,51.9,23.20,ESE,121,0.0,0.0,54,0.00,,,0.09,46,Wunderground v.1.15,2013-05-20 22:40:00,
2013-05-20 18:50:00,69.0,52.2,23.20,ESE,121,0.0,0.0,55,0.00,,,0.09,42,Wunderground v.1.15,2013-05-20 22:50:00,
2013-05-20 19:10:00,68.5,52.2,23.20,ESE,121,0.0,0.0,56,0.00,,,0.09,26,Wunderground v.1.15,2013-05-20 23:10:00,
2013-05-20 19:20:00,68.0,52.2,23.20,ESE,121,0.0,0.0,57,0.00,,,0.09,35,Wunderground v.1.15,2013-05-20 23:20:00,
2013-05-20 19:30:00,67.7,52.4,23.20,ESE,121,0.0,0.0,58,0.00,,,0.09,26,Wunderground v.1.15,2013-05-20 23:30:00,
2013-05-20 19:40:00,67.3,52.0,23.20,ESE,121,0.0,0.0,58,0.00,,,0.09,14,Wunderground v.1.15,2013-05-20 23:40:00,
2013-05-20 19:50:00,67.2,51.9,23.20,ESE,121,0.0,0.0,58,0.00,,,0.09,14,Wunderground v.1.15,2013-05-20 23:50:00,
2013-05-20 20:10:00,66.7,52.8,23.20,ESE,121,0.0,0.0,61,0.00,,,0.09,0,Wunderground v.1.15,2013-05-21 00:10:00,
2013-05-20 20:20:00,66.2,52.8,23.20,ESE,121,0.0,0.0,62,0.00,,,0.09,0,Wunderground v.1.15,2013-05-21 00:20:00,
2013-05-20 20:31:00,65.9,52.1,23.20,SE,126,0.0,0.0,61,0.00,,,0.09,0,Wunderground v.1.15,2013-05-21 00:31:00,
2013-05-20 20:40:00,65.5,51.7,23.20,SSE,155,0.0,0.0,61,0.00,,,0.09,0,Wunderground v.1.15,2013-05-21 00:40:00,
2013-05-20 20:50:00,65.4,51.6,23.19,SSE,150,0.0,0.0,61,0.00,,,0.09,0,Wunderground v.1.15,2013-05-21 00:50:00,
2013-05-20 21:10:00,64.7,51.4,23.20,SSE,155,0.0,0.0,62,0.00,,,0.09,0,Wunderground v.1.15,2013-05-21 01:10:00,
2013-05-20 21:20:00,64.6,51.3,23.20,SSE,155,0.0,0.0,62,0.00,,,0.09,0,Wunderground v.1.15,2013-05-21 01:20:00,
2013-05-20 21:30:00,64.2,50.9,23.20,SSE,163,0.0,0.0,62,0.00,,,0.09,0,Wunderground v.1.15,2013-05-21 01:30:00,
2013-05-20 21:40:00,64.1,51.2,23.20,SSE,163,0.0,0.0,63,0.00,,,0.09,0,Wunderground v.1.15,2013-05-21 01:40:00,
2013-05-20 21:50:00,63.9,51.5,23.20,SSE,163,0.0,0.0,64,0.00,,,0.09,0,Wunderground v.1.15,2013-05-21 01:50:00,
2013-05-20 22:10:00,63.9,51.1,23.20,SSE,163,0.0,0.0,63,0.00,,,0.09,0,Wunderground v.1.15,2013-05-21 02:10:00,
2013-05-20 22:20:00,63.8,51.0,23.20,SSE,163,0.0,0.0,63,0.00,,,0.09,0,Wunderground v.1.15,2013-05-21 02:20:00,
2013-05-20 22:30:00,63.6,51.2,23.20,SSE,163,0.0,0.0,64,0.00,,,0.09,0,Wunderground v.1.15,2013-05-21 02:30:00,
2013-05-20 22:40:00,63.4,51.0,23.20,SSE,163,0.0,0.0,64,0.00,,,0.09,0,Wunderground v.1.15,2013-05-21 02:40:00,
2013-05-20 22:50:00,63.3,51.3,23.20,SSE,163,0.0,0.0,65,0.00,,,0.09,0,Wunderground v.1.15,2013-05-21 02:50:00,
2013-05-20 23:01:00,63.0,52.3,23.20,SSE,163,0.0,0.0,68,0.00,,,0.09,0,Wunderground v.1.15,2013-05-21 03:01:00,
2013-05-20 23:10:00,62.5,52.6,23.20,SSE,163,0.0,0.0,70,0.00,,,0.09,0,Wunderground v.1.15,2013-05-21 03:10:00,
2013-05-20 23:20:00,62.0,52.5,23.20,SSE,163,0.0,0.0,71,0.00,,,0.09,0,Wunderground v.1.15,2013-05-21 03:20:00,
2013-05-20 23:30:00,61.7,52.6,23.20,SSE,163,0.0,0.0,72,0.00,,,0.09,0,Wunderground v.1.15,2013-05-21 03:30:00,
2013-05-20 23:40:00,61.4,52.3,23.20,SSE,163,0.0,0.0,72,0.00,,,0.09,0,Wunderground v.1.15,2013-05-21 03:40:00,
2013-05-20 23:50:00,60.9,52.2,23.20,SSE,163,0.0,0.0,73,0.00,,,0.09,0,Wunderground v.1.15,2013-05-21 03:50:00,